sensor_id;sensor_type;location;lat;lon;timestamp;P1;durP1;ratioP1;P2;durP2;ratioP2
36963;SDS011;22878;48.616;35.326;2023-02-15T00:01:05;3.00;;;1.40;;
36963;SDS011;22878;48.616;35.326;2023-02-15T00:03:32;2.40;;;1.10;;
36963;SDS011;22878;48.616;35.326;2023-02-15T00:05:57;2.80;;;1.30;;
36963;SDS011;22878;48.616;35.326;2023-02-15T00:08:23;3.40;;;1.20;;
36963;SDS011;22878;48.616;35.326;2023-02-15T00:10:48;3.40;;;1.60;;
36963;SDS011;22878;48.616;35.326;2023-02-15T00:13:14;2.30;;;1.30;;
36963;SDS011;22878;48.616;35.326;2023-02-15T00:15:39;2.80;;;1.10;;
36963;SDS011;22878;48.616;35.326;2023-02-15T00:18:05;2.60;;;1.10;;
36963;SDS011;22878;48.616;35.326;2023-02-15T00:20:30;3.10;;;1.20;;
36963;SDS011;22878;48.616;35.326;2023-02-15T00:22:56;4.00;;;1.70;;
36963;SDS011;22878;48.616;35.326;2023-02-15T00:25:21;13.00;;;1.60;;
36963;SDS011;22878;48.616;35.326;2023-02-15T00:27:47;6.30;;;1.50;;
36963;SDS011;22878;48.616;35.326;2023-02-15T00:30:12;2.80;;;1.50;;
36963;SDS011;22878;48.616;35.326;2023-02-15T00:32:38;2.80;;;1.60;;
36963;SDS011;22878;48.616;35.326;2023-02-15T00:35:04;6.10;;;1.50;;
36963;SDS011;22878;48.616;35.326;2023-02-15T00:37:29;6.20;;;1.70;;
36963;SDS011;22878;48.616;35.326;2023-02-15T00:39:55;3.90;;;1.50;;
36963;SDS011;22878;48.616;35.326;2023-02-15T00:42:20;3.20;;;1.50;;
36963;SDS011;22878;48.616;35.326;2023-02-15T00:44:46;1.70;;;1.30;;
36963;SDS011;22878;48.616;35.326;2023-02-15T00:47:11;4.60;;;1.90;;
36963;SDS011;22878;48.616;35.326;2023-02-15T00:49:37;3.80;;;1.30;;
36963;SDS011;22878;48.616;35.326;2023-02-15T00:52:02;7.70;;;1.70;;
36963;SDS011;22878;48.616;35.326;2023-02-15T00:54:28;3.80;;;1.20;;
36963;SDS011;22878;48.616;35.326;2023-02-15T00:56:53;3.70;;;1.70;;
36963;SDS011;22878;48.616;35.326;2023-02-15T00:59:19;4.00;;;1.30;;
36963;SDS011;22878;48.616;35.326;2023-02-15T01:01:44;3.70;;;1.70;;
36963;SDS011;22878;48.616;35.326;2023-02-15T01:04:10;4.20;;;1.40;;
36963;SDS011;22878;48.616;35.326;2023-02-15T01:09:57;2.30;;;1.20;;
36963;SDS011;22878;48.616;35.326;2023-02-15T01:12:23;4.00;;;1.30;;
36963;SDS011;22878;48.616;35.326;2023-02-15T01:14:48;4.40;;;1.80;;
36963;SDS011;22878;48.616;35.326;2023-02-15T01:17:13;7.60;;;1.70;;
36963;SDS011;22878;48.616;35.326;2023-02-15T01:19:39;2.80;;;1.40;;
36963;SDS011;22878;48.616;35.326;2023-02-15T01:22:04;4.80;;;1.40;;
36963;SDS011;22878;48.616;35.326;2023-02-15T01:24:30;3.50;;;1.50;;
36963;SDS011;22878;48.616;35.326;2023-02-15T01:26:56;3.90;;;1.50;;
36963;SDS011;22878;48.616;35.326;2023-02-15T01:29:21;3.80;;;1.60;;
36963;SDS011;22878;48.616;35.326;2023-02-15T01:31:47;3.60;;;1.50;;
36963;SDS011;22878;48.616;35.326;2023-02-15T01:37:34;4.00;;;1.50;;
36963;SDS011;22878;48.616;35.326;2023-02-15T01:40:01;3.10;;;1.30;;
36963;SDS011;22878;48.616;35.326;2023-02-15T01:42:28;3.70;;;1.20;;
36963;SDS011;22878;48.616;35.326;2023-02-15T01:48:20;1.70;;;1.00;;
36963;SDS011;22878;48.616;35.326;2023-02-15T01:54:21;3.30;;;1.40;;
36963;SDS011;22878;48.616;35.326;2023-02-15T01:57:05;1.80;;;1.30;;
36963;SDS011;22878;48.616;35.326;2023-02-15T01:59:35;3.30;;;1.10;;
36963;SDS011;22878;48.616;35.326;2023-02-15T02:02:05;2.50;;;1.20;;
36963;SDS011;22878;48.616;35.326;2023-02-15T02:04:35;3.60;;;1.40;;
36963;SDS011;22878;48.616;35.326;2023-02-15T02:07:06;2.80;;;1.30;;
36963;SDS011;22878;48.616;35.326;2023-02-15T02:09:35;3.20;;;1.40;;
36963;SDS011;22878;48.616;35.326;2023-02-15T02:18:20;2.90;;;1.30;;
36963;SDS011;22878;48.616;35.326;2023-02-15T02:26:32;3.00;;;1.30;;
36963;SDS011;22878;48.616;35.326;2023-02-15T02:35:41;4.30;;;1.60;;
36963;SDS011;22878;48.616;35.326;2023-02-15T02:41:18;3.00;;;1.30;;
36963;SDS011;22878;48.616;35.326;2023-02-15T02:49:42;2.30;;;1.30;;
36963;SDS011;22878;48.616;35.326;2023-02-15T02:58:08;3.50;;;1.60;;
36963;SDS011;22878;48.616;35.326;2023-02-15T03:00:48;3.80;;;1.60;;
36963;SDS011;22878;48.616;35.326;2023-02-15T03:05:56;3.10;;;1.40;;
36963;SDS011;22878;48.616;35.326;2023-02-15T03:08:26;3.60;;;1.20;;
36963;SDS011;22878;48.616;35.326;2023-02-15T03:10:58;3.30;;;1.60;;
36963;SDS011;22878;48.616;35.326;2023-02-15T03:13:26;2.90;;;1.40;;
36963;SDS011;22878;48.616;35.326;2023-02-15T03:15:53;1.90;;;1.20;;
36963;SDS011;22878;48.616;35.326;2023-02-15T03:18:50;6.40;;;1.60;;
36963;SDS011;22878;48.616;35.326;2023-02-15T03:21:29;3.80;;;1.40;;
36963;SDS011;22878;48.616;35.326;2023-02-15T03:24:10;2.30;;;1.30;;
36963;SDS011;22878;48.616;35.326;2023-02-15T03:26:39;3.60;;;1.30;;
36963;SDS011;22878;48.616;35.326;2023-02-15T03:29:07;2.70;;;1.30;;
36963;SDS011;22878;48.616;35.326;2023-02-15T03:31:37;2.90;;;1.50;;
36963;SDS011;22878;48.616;35.326;2023-02-15T03:34:06;5.00;;;1.30;;
36963;SDS011;22878;48.616;35.326;2023-02-15T03:36:39;2.10;;;1.20;;
36963;SDS011;22878;48.616;35.326;2023-02-15T03:41:59;5.40;;;1.30;;
36963;SDS011;22878;48.616;35.326;2023-02-15T03:44:30;3.70;;;1.60;;
36963;SDS011;22878;48.616;35.326;2023-02-15T03:49:40;3.40;;;1.50;;
36963;SDS011;22878;48.616;35.326;2023-02-15T03:52:10;2.60;;;1.40;;
36963;SDS011;22878;48.616;35.326;2023-02-15T03:54:36;2.00;;;1.20;;
36963;SDS011;22878;48.616;35.326;2023-02-15T03:57:24;2.30;;;1.30;;
36963;SDS011;22878;48.616;35.326;2023-02-15T04:05:45;3.10;;;1.30;;
36963;SDS011;22878;48.616;35.326;2023-02-15T04:08:11;2.50;;;1.40;;
36963;SDS011;22878;48.616;35.326;2023-02-15T04:10:37;4.60;;;1.90;;
36963;SDS011;22878;48.616;35.326;2023-02-15T04:13:20;1.90;;;1.30;;
36963;SDS011;22878;48.616;35.326;2023-02-15T04:15:47;2.70;;;1.30;;
36963;SDS011;22878;48.616;35.326;2023-02-15T04:18:41;4.90;;;1.60;;
36963;SDS011;22878;48.616;35.326;2023-02-15T04:21:28;4.50;;;1.70;;
36963;SDS011;22878;48.616;35.326;2023-02-15T04:24:13;3.60;;;1.60;;
36963;SDS011;22878;48.616;35.326;2023-02-15T04:26:58;2.60;;;1.30;;
36963;SDS011;22878;48.616;35.326;2023-02-15T04:29:25;2.40;;;1.40;;
36963;SDS011;22878;48.616;35.326;2023-02-15T04:31:53;2.80;;;1.40;;
36963;SDS011;22878;48.616;35.326;2023-02-15T04:34:19;2.80;;;1.50;;
36963;SDS011;22878;48.616;35.326;2023-02-15T04:36:45;2.40;;;1.50;;
36963;SDS011;22878;48.616;35.326;2023-02-15T04:39:12;5.20;;;1.30;;
36963;SDS011;22878;48.616;35.326;2023-02-15T04:41:39;2.20;;;1.30;;
36963;SDS011;22878;48.616;35.326;2023-02-15T04:44:05;3.20;;;1.60;;
36963;SDS011;22878;48.616;35.326;2023-02-15T04:46:30;2.20;;;1.50;;
36963;SDS011;22878;48.616;35.326;2023-02-15T04:48:56;3.10;;;1.40;;
36963;SDS011;22878;48.616;35.326;2023-02-15T04:51:22;1.90;;;1.20;;
36963;SDS011;22878;48.616;35.326;2023-02-15T04:53:47;2.70;;;1.30;;
36963;SDS011;22878;48.616;35.326;2023-02-15T04:56:13;3.00;;;1.60;;
36963;SDS011;22878;48.616;35.326;2023-02-15T04:58:39;2.30;;;1.20;;
36963;SDS011;22878;48.616;35.326;2023-02-15T05:04:29;3.50;;;1.50;;
36963;SDS011;22878;48.616;35.326;2023-02-15T05:06:55;2.80;;;1.30;;
36963;SDS011;22878;48.616;35.326;2023-02-15T05:09:20;2.10;;;1.10;;
36963;SDS011;22878;48.616;35.326;2023-02-15T05:11:46;3.10;;;1.40;;
36963;SDS011;22878;48.616;35.326;2023-02-15T05:14:12;3.40;;;1.20;;
36963;SDS011;22878;48.616;35.326;2023-02-15T05:19:59;2.70;;;1.40;;
36963;SDS011;22878;48.616;35.326;2023-02-15T05:22:25;2.40;;;1.10;;
36963;SDS011;22878;48.616;35.326;2023-02-15T05:24:51;2.90;;;1.20;;
36963;SDS011;22878;48.616;35.326;2023-02-15T05:27:35;4.20;;;1.30;;
36963;SDS011;22878;48.616;35.326;2023-02-15T05:30:19;2.40;;;1.20;;
36963;SDS011;22878;48.616;35.326;2023-02-15T05:32:45;4.70;;;1.70;;
36963;SDS011;22878;48.616;35.326;2023-02-15T05:35:16;2.80;;;1.40;;
36963;SDS011;22878;48.616;35.326;2023-02-15T05:37:42;3.10;;;1.30;;
36963;SDS011;22878;48.616;35.326;2023-02-15T05:40:08;3.10;;;1.30;;
36963;SDS011;22878;48.616;35.326;2023-02-15T05:42:33;3.80;;;1.40;;
36963;SDS011;22878;48.616;35.326;2023-02-15T05:44:59;2.60;;;1.20;;
36963;SDS011;22878;48.616;35.326;2023-02-15T05:47:25;3.30;;;1.30;;
36963;SDS011;22878;48.616;35.326;2023-02-15T05:49:50;2.40;;;1.10;;
36963;SDS011;22878;48.616;35.326;2023-02-15T05:52:16;4.70;;;1.70;;
36963;SDS011;22878;48.616;35.326;2023-02-15T05:54:41;2.40;;;1.30;;
36963;SDS011;22878;48.616;35.326;2023-02-15T05:57:07;3.00;;;1.50;;
36963;SDS011;22878;48.616;35.326;2023-02-15T05:59:32;2.40;;;1.00;;
36963;SDS011;22878;48.616;35.326;2023-02-15T06:01:58;2.10;;;1.20;;
36963;SDS011;22878;48.616;35.326;2023-02-15T06:04:23;2.50;;;1.10;;
36963;SDS011;22878;48.616;35.326;2023-02-15T06:06:49;2.10;;;1.00;;
36963;SDS011;22878;48.616;35.326;2023-02-15T06:09:14;1.60;;;1.00;;
36963;SDS011;22878;48.616;35.326;2023-02-15T06:11:43;2.80;;;1.10;;
36963;SDS011;22878;48.616;35.326;2023-02-15T06:14:10;2.00;;;1.20;;
36963;SDS011;22878;48.616;35.326;2023-02-15T06:16:35;2.10;;;1.20;;
36963;SDS011;22878;48.616;35.326;2023-02-15T06:19:01;1.30;;;0.90;;
36963;SDS011;22878;48.616;35.326;2023-02-15T06:21:27;2.40;;;1.20;;
36963;SDS011;22878;48.616;35.326;2023-02-15T06:23:54;2.10;;;1.00;;
36963;SDS011;22878;48.616;35.326;2023-02-15T06:26:19;1.80;;;0.90;;
36963;SDS011;22878;48.616;35.326;2023-02-15T06:28:45;3.80;;;1.00;;
36963;SDS011;22878;48.616;35.326;2023-02-15T06:31:10;2.60;;;1.00;;
36963;SDS011;22878;48.616;35.326;2023-02-15T06:33:36;2.60;;;1.10;;
36963;SDS011;22878;48.616;35.326;2023-02-15T06:36:02;1.50;;;0.80;;
36963;SDS011;22878;48.616;35.326;2023-02-15T06:38:28;2.30;;;1.20;;
36963;SDS011;22878;48.616;35.326;2023-02-15T06:40:54;2.10;;;0.80;;
36963;SDS011;22878;48.616;35.326;2023-02-15T06:43:20;1.90;;;0.90;;
36963;SDS011;22878;48.616;35.326;2023-02-15T06:45:45;2.70;;;1.00;;
36963;SDS011;22878;48.616;35.326;2023-02-15T06:48:11;2.80;;;1.20;;
36963;SDS011;22878;48.616;35.326;2023-02-15T06:50:36;1.40;;;0.90;;
36963;SDS011;22878;48.616;35.326;2023-02-15T06:53:02;1.70;;;1.00;;
36963;SDS011;22878;48.616;35.326;2023-02-15T06:55:28;3.00;;;0.80;;
36963;SDS011;22878;48.616;35.326;2023-02-15T06:57:54;2.10;;;0.90;;
36963;SDS011;22878;48.616;35.326;2023-02-15T07:00:19;1.00;;;0.70;;
36963;SDS011;22878;48.616;35.326;2023-02-15T07:02:47;1.30;;;0.70;;
36963;SDS011;22878;48.616;35.326;2023-02-15T07:05:12;1.60;;;0.80;;
36963;SDS011;22878;48.616;35.326;2023-02-15T07:07:38;4.50;;;1.10;;
36963;SDS011;22878;48.616;35.326;2023-02-15T07:10:04;2.80;;;1.10;;
36963;SDS011;22878;48.616;35.326;2023-02-15T07:12:30;2.60;;;1.00;;
36963;SDS011;22878;48.616;35.326;2023-02-15T07:22:17;2.20;;;1.00;;
36963;SDS011;22878;48.616;35.326;2023-02-15T07:24:43;1.80;;;1.10;;
36963;SDS011;22878;48.616;35.326;2023-02-15T07:30:30;1.80;;;0.90;;
36963;SDS011;22878;48.616;35.326;2023-02-15T07:32:57;4.30;;;0.90;;
36963;SDS011;22878;48.616;35.326;2023-02-15T07:35:46;2.50;;;1.00;;
36963;SDS011;22878;48.616;35.326;2023-02-15T07:41:02;4.30;;;1.40;;
36963;SDS011;22878;48.616;35.326;2023-02-15T07:43:30;2.30;;;1.00;;
36963;SDS011;22878;48.616;35.326;2023-02-15T07:45:59;3.40;;;1.30;;
36963;SDS011;22878;48.616;35.326;2023-02-15T07:48:26;1.80;;;0.70;;
36963;SDS011;22878;48.616;35.326;2023-02-15T07:50:52;2.10;;;1.10;;
36963;SDS011;22878;48.616;35.326;2023-02-15T07:53:18;3.90;;;1.20;;
36963;SDS011;22878;48.616;35.326;2023-02-15T07:55:43;3.60;;;1.30;;
36963;SDS011;22878;48.616;35.326;2023-02-15T07:58:09;6.10;;;1.60;;
36963;SDS011;22878;48.616;35.326;2023-02-15T08:00:34;2.00;;;1.10;;
36963;SDS011;22878;48.616;35.326;2023-02-15T08:03:22;3.50;;;1.30;;
36963;SDS011;22878;48.616;35.326;2023-02-15T08:05:51;3.40;;;1.60;;
36963;SDS011;22878;48.616;35.326;2023-02-15T08:08:22;4.80;;;1.20;;
36963;SDS011;22878;48.616;35.326;2023-02-15T08:13:47;2.90;;;1.20;;
36963;SDS011;22878;48.616;35.326;2023-02-15T08:16:23;2.60;;;0.90;;
36963;SDS011;22878;48.616;35.326;2023-02-15T08:19:07;3.40;;;1.50;;
36963;SDS011;22878;48.616;35.326;2023-02-15T08:21:36;2.00;;;0.80;;
36963;SDS011;22878;48.616;35.326;2023-02-15T08:24:03;2.60;;;1.40;;
36963;SDS011;22878;48.616;35.326;2023-02-15T08:26:31;4.20;;;1.20;;
36963;SDS011;22878;48.616;35.326;2023-02-15T08:28:57;3.60;;;0.80;;
36963;SDS011;22878;48.616;35.326;2023-02-15T08:31:24;2.80;;;1.20;;
36963;SDS011;22878;48.616;35.326;2023-02-15T08:33:51;3.10;;;1.10;;
36963;SDS011;22878;48.616;35.326;2023-02-15T08:36:19;2.70;;;1.10;;
36963;SDS011;22878;48.616;35.326;2023-02-15T08:38:46;6.60;;;1.30;;
36963;SDS011;22878;48.616;35.326;2023-02-15T08:41:19;2.40;;;1.10;;
36963;SDS011;22878;48.616;35.326;2023-02-15T08:43:49;4.70;;;1.30;;
36963;SDS011;22878;48.616;35.326;2023-02-15T08:46:17;1.80;;;1.20;;
36963;SDS011;22878;48.616;35.326;2023-02-15T08:48:44;3.40;;;1.50;;
36963;SDS011;22878;48.616;35.326;2023-02-15T08:51:11;3.10;;;1.10;;
36963;SDS011;22878;48.616;35.326;2023-02-15T08:53:42;2.70;;;1.20;;
36963;SDS011;22878;48.616;35.326;2023-02-15T08:56:10;2.70;;;1.40;;
36963;SDS011;22878;48.616;35.326;2023-02-15T08:58:36;4.40;;;1.60;;
36963;SDS011;22878;48.616;35.326;2023-02-15T09:04:25;3.00;;;1.30;;
36963;SDS011;22878;48.616;35.326;2023-02-15T09:06:51;5.90;;;1.30;;
36963;SDS011;22878;48.616;35.326;2023-02-15T09:09:17;4.30;;;1.40;;
36963;SDS011;22878;48.616;35.326;2023-02-15T09:11:45;2.60;;;1.10;;
36963;SDS011;22878;48.616;35.326;2023-02-15T09:14:13;4.20;;;1.30;;
36963;SDS011;22878;48.616;35.326;2023-02-15T09:16:41;3.40;;;1.30;;
36963;SDS011;22878;48.616;35.326;2023-02-15T09:19:14;3.60;;;1.20;;
36963;SDS011;22878;48.616;35.326;2023-02-15T09:21:40;3.90;;;1.40;;
36963;SDS011;22878;48.616;35.326;2023-02-15T09:24:07;2.40;;;1.30;;
36963;SDS011;22878;48.616;35.326;2023-02-15T09:26:36;2.20;;;1.10;;
36963;SDS011;22878;48.616;35.326;2023-02-15T09:32:26;2.80;;;1.30;;
36963;SDS011;22878;48.616;35.326;2023-02-15T09:34:52;2.50;;;1.20;;
36963;SDS011;22878;48.616;35.326;2023-02-15T09:37:18;1.80;;;0.90;;
36963;SDS011;22878;48.616;35.326;2023-02-15T09:39:44;5.70;;;1.60;;
36963;SDS011;22878;48.616;35.326;2023-02-15T09:42:14;5.00;;;1.60;;
36963;SDS011;22878;48.616;35.326;2023-02-15T09:52:56;5.20;;;1.70;;
36963;SDS011;22878;48.616;35.326;2023-02-15T09:55:33;4.30;;;1.90;;
36963;SDS011;22878;48.616;35.326;2023-02-15T09:58:17;3.30;;;1.20;;
36963;SDS011;22878;48.616;35.326;2023-02-15T10:03:46;4.80;;;1.30;;
36963;SDS011;22878;48.616;35.326;2023-02-15T10:06:42;7.30;;;2.60;;
36963;SDS011;22878;48.616;35.326;2023-02-15T10:26:46;1.40;;;0.90;;
36963;SDS011;22878;48.616;35.326;2023-02-15T10:38:43;2.40;;;1.20;;
36963;SDS011;22878;48.616;35.326;2023-02-15T11:00:23;4.60;;;1.50;;
36963;SDS011;22878;48.616;35.326;2023-02-15T11:05:24;2.30;;;1.30;;
36963;SDS011;22878;48.616;35.326;2023-02-15T11:07:55;4.00;;;1.80;;
36963;SDS011;22878;48.616;35.326;2023-02-15T11:13:00;7.20;;;1.30;;
36963;SDS011;22878;48.616;35.326;2023-02-15T11:21:40;1.20;;;0.90;;
36963;SDS011;22878;48.616;35.326;2023-02-15T11:24:13;4.10;;;1.10;;
36963;SDS011;22878;48.616;35.326;2023-02-15T11:26:54;2.30;;;0.80;;
36963;SDS011;22878;48.616;35.326;2023-02-15T11:32:44;2.30;;;1.00;;
36963;SDS011;22878;48.616;35.326;2023-02-15T11:49:42;2.90;;;1.00;;
36963;SDS011;22878;48.616;35.326;2023-02-15T11:52:12;1.70;;;0.80;;
36963;SDS011;22878;48.616;35.326;2023-02-15T12:06:46;2.50;;;0.80;;
36963;SDS011;22878;48.616;35.326;2023-02-15T12:09:30;1.60;;;0.70;;
36963;SDS011;22878;48.616;35.326;2023-02-15T12:17:14;1.90;;;0.70;;
36963;SDS011;22878;48.616;35.326;2023-02-15T12:22:45;1.10;;;0.50;;
36963;SDS011;22878;48.616;35.326;2023-02-15T12:25:29;1.60;;;0.60;;
36963;SDS011;22878;48.616;35.326;2023-02-15T12:27:58;2.30;;;0.80;;
36963;SDS011;22878;48.616;35.326;2023-02-15T12:33:05;3.50;;;0.80;;
36963;SDS011;22878;48.616;35.326;2023-02-15T12:35:42;2.00;;;0.90;;
36963;SDS011;22878;48.616;35.326;2023-02-15T12:40:34;2.00;;;1.00;;
36963;SDS011;22878;48.616;35.326;2023-02-15T12:43:00;4.50;;;1.30;;
36963;SDS011;22878;48.616;35.326;2023-02-15T12:45:33;1.90;;;1.00;;
36963;SDS011;22878;48.616;35.326;2023-02-15T12:50:35;1.60;;;0.90;;
36963;SDS011;22878;48.616;35.326;2023-02-15T12:53:11;1.60;;;0.80;;
36963;SDS011;22878;48.616;35.326;2023-02-15T12:58:19;1.70;;;0.90;;
36963;SDS011;22878;48.616;35.326;2023-02-15T13:00:47;2.60;;;1.10;;
36963;SDS011;22878;48.616;35.326;2023-02-15T13:03:16;2.20;;;0.90;;
36963;SDS011;22878;48.616;35.326;2023-02-15T13:05:44;2.70;;;0.90;;
36963;SDS011;22878;48.616;35.326;2023-02-15T13:10:57;2.70;;;1.00;;
36963;SDS011;22878;48.616;35.326;2023-02-15T13:13:28;2.50;;;0.90;;
36963;SDS011;22878;48.616;35.326;2023-02-15T13:16:07;1.90;;;0.90;;
36963;SDS011;22878;48.616;35.326;2023-02-15T13:21:59;1.80;;;0.90;;
36963;SDS011;22878;48.616;35.326;2023-02-15T13:24:37;1.50;;;0.70;;
36963;SDS011;22878;48.616;35.326;2023-02-15T13:27:07;3.60;;;1.30;;
36963;SDS011;22878;48.616;35.326;2023-02-15T13:29:43;2.00;;;0.80;;
36963;SDS011;22878;48.616;35.326;2023-02-15T13:32:28;2.20;;;0.90;;
36963;SDS011;22878;48.616;35.326;2023-02-15T13:34:57;3.30;;;1.40;;
36963;SDS011;22878;48.616;35.326;2023-02-15T13:37:37;4.10;;;1.60;;
36963;SDS011;22878;48.616;35.326;2023-02-15T13:42:40;3.20;;;1.40;;
36963;SDS011;22878;48.616;35.326;2023-02-15T13:45:26;3.30;;;1.50;;
36963;SDS011;22878;48.616;35.326;2023-02-15T13:51:29;4.40;;;1.90;;
36963;SDS011;22878;48.616;35.326;2023-02-15T14:03:19;4.40;;;1.50;;
36963;SDS011;22878;48.616;35.326;2023-02-15T14:20:01;5.40;;;1.50;;
36963;SDS011;22878;48.616;35.326;2023-02-15T14:22:43;3.80;;;1.60;;
36963;SDS011;22878;48.616;35.326;2023-02-15T14:25:18;3.50;;;1.30;;
36963;SDS011;22878;48.616;35.326;2023-02-15T14:33:56;3.30;;;1.40;;
36963;SDS011;22878;48.616;35.326;2023-02-15T14:36:22;4.50;;;1.60;;
36963;SDS011;22878;48.616;35.326;2023-02-15T14:38:53;4.60;;;1.40;;
36963;SDS011;22878;48.616;35.326;2023-02-15T14:44:53;4.40;;;1.80;;
36963;SDS011;22878;48.616;35.326;2023-02-15T14:56:22;12.00;;;2.20;;
36963;SDS011;22878;48.616;35.326;2023-02-15T15:01:30;3.40;;;1.40;;
36963;SDS011;22878;48.616;35.326;2023-02-15T15:09:46;3.50;;;1.20;;
36963;SDS011;22878;48.616;35.326;2023-02-15T15:14:51;3.10;;;0.90;;
36963;SDS011;22878;48.616;35.326;2023-02-15T15:20:48;13.50;;;1.70;;
36963;SDS011;22878;48.616;35.326;2023-02-15T15:26:36;2.60;;;1.50;;
36963;SDS011;22878;48.616;35.326;2023-02-15T15:29:05;3.90;;;1.60;;
36963;SDS011;22878;48.616;35.326;2023-02-15T15:31:39;2.80;;;1.40;;
36963;SDS011;22878;48.616;35.326;2023-02-15T15:37:38;3.90;;;1.60;;
36963;SDS011;22878;48.616;35.326;2023-02-15T15:43:47;6.50;;;2.10;;
36963;SDS011;22878;48.616;35.326;2023-02-15T15:49:21;3.90;;;1.60;;
36963;SDS011;22878;48.616;35.326;2023-02-15T15:51:49;5.20;;;1.60;;
36963;SDS011;22878;48.616;35.326;2023-02-15T15:54:16;2.20;;;1.40;;
36963;SDS011;22878;48.616;35.326;2023-02-15T15:56:47;3.90;;;1.60;;
36963;SDS011;22878;48.616;35.326;2023-02-15T16:02:49;2.70;;;1.50;;
36963;SDS011;22878;48.616;35.326;2023-02-15T16:05:16;3.10;;;1.20;;
36963;SDS011;22878;48.616;35.326;2023-02-15T16:07:41;3.00;;;1.20;;
36963;SDS011;22878;48.616;35.326;2023-02-15T16:10:16;4.00;;;1.30;;
36963;SDS011;22878;48.616;35.326;2023-02-15T16:12:50;1.70;;;0.90;;
36963;SDS011;22878;48.616;35.326;2023-02-15T16:15:22;2.50;;;1.10;;
36963;SDS011;22878;48.616;35.326;2023-02-15T16:17:54;4.30;;;1.20;;
36963;SDS011;22878;48.616;35.326;2023-02-15T16:20:23;2.20;;;1.00;;
36963;SDS011;22878;48.616;35.326;2023-02-15T16:29:23;4.00;;;0.80;;
36963;SDS011;22878;48.616;35.326;2023-02-15T16:34:29;4.20;;;1.10;;
36963;SDS011;22878;48.616;35.326;2023-02-15T16:40:41;2.80;;;1.00;;
36963;SDS011;22878;48.616;35.326;2023-02-15T16:43:05;3.10;;;1.10;;
36963;SDS011;22878;48.616;35.326;2023-02-15T16:45:35;2.40;;;1.20;;
36963;SDS011;22878;48.616;35.326;2023-02-15T16:51:26;4.40;;;1.00;;
36963;SDS011;22878;48.616;35.326;2023-02-15T16:53:54;2.00;;;0.90;;
36963;SDS011;22878;48.616;35.326;2023-02-15T16:56:25;2.50;;;1.10;;
36963;SDS011;22878;48.616;35.326;2023-02-15T16:58:53;3.00;;;1.00;;
36963;SDS011;22878;48.616;35.326;2023-02-15T17:01:21;4.20;;;1.10;;
36963;SDS011;22878;48.616;35.326;2023-02-15T17:03:52;2.50;;;1.10;;
36963;SDS011;22878;48.616;35.326;2023-02-15T17:06:39;1.80;;;0.90;;
36963;SDS011;22878;48.616;35.326;2023-02-15T17:09:13;3.30;;;0.90;;
36963;SDS011;22878;48.616;35.326;2023-02-15T17:11:47;3.30;;;0.90;;
36963;SDS011;22878;48.616;35.326;2023-02-15T17:17:34;3.80;;;1.20;;
36963;SDS011;22878;48.616;35.326;2023-02-15T17:20:00;3.80;;;1.10;;
36963;SDS011;22878;48.616;35.326;2023-02-15T17:22:26;3.00;;;1.10;;
36963;SDS011;22878;48.616;35.326;2023-02-15T17:24:58;3.30;;;0.90;;
36963;SDS011;22878;48.616;35.326;2023-02-15T17:27:27;4.90;;;1.30;;
36963;SDS011;22878;48.616;35.326;2023-02-15T17:30:00;2.70;;;1.20;;
36963;SDS011;22878;48.616;35.326;2023-02-15T17:32:29;3.60;;;1.10;;
36963;SDS011;22878;48.616;35.326;2023-02-15T17:42:39;4.80;;;1.30;;
36963;SDS011;22878;48.616;35.326;2023-02-15T17:48:33;6.40;;;1.30;;
36963;SDS011;22878;48.616;35.326;2023-02-15T17:51:01;5.00;;;1.40;;
36963;SDS011;22878;48.616;35.326;2023-02-15T17:53:28;3.10;;;1.50;;
36963;SDS011;22878;48.616;35.326;2023-02-15T17:55:53;4.00;;;1.40;;
36963;SDS011;22878;48.616;35.326;2023-02-15T17:58:19;3.70;;;1.30;;
36963;SDS011;22878;48.616;35.326;2023-02-15T18:00:54;3.70;;;1.50;;
36963;SDS011;22878;48.616;35.326;2023-02-15T18:03:48;4.10;;;1.40;;
36963;SDS011;22878;48.616;35.326;2023-02-15T18:06:33;3.10;;;1.40;;
36963;SDS011;22878;48.616;35.326;2023-02-15T18:09:20;4.20;;;1.50;;
36963;SDS011;22878;48.616;35.326;2023-02-15T18:12:27;5.50;;;1.80;;
36963;SDS011;22878;48.616;35.326;2023-02-15T18:14:58;4.20;;;1.90;;
36963;SDS011;22878;48.616;35.326;2023-02-15T18:22:44;4.40;;;2.30;;
36963;SDS011;22878;48.616;35.326;2023-02-15T18:25:14;3.40;;;1.80;;
36963;SDS011;22878;48.616;35.326;2023-02-15T18:27:41;6.50;;;2.00;;
36963;SDS011;22878;48.616;35.326;2023-02-15T18:30:07;5.60;;;2.00;;
36963;SDS011;22878;48.616;35.326;2023-02-15T18:32:41;4.80;;;1.90;;
36963;SDS011;22878;48.616;35.326;2023-02-15T18:35:12;4.30;;;1.60;;
36963;SDS011;22878;48.616;35.326;2023-02-15T18:37:43;6.40;;;1.80;;
36963;SDS011;22878;48.616;35.326;2023-02-15T18:40:17;2.80;;;1.40;;
36963;SDS011;22878;48.616;35.326;2023-02-15T18:42:44;4.20;;;1.50;;
36963;SDS011;22878;48.616;35.326;2023-02-15T18:45:16;3.20;;;1.70;;
36963;SDS011;22878;48.616;35.326;2023-02-15T18:47:43;3.50;;;1.50;;
36963;SDS011;22878;48.616;35.326;2023-02-15T18:53:31;14.80;;;2.20;;
36963;SDS011;22878;48.616;35.326;2023-02-15T18:55:56;5.20;;;1.70;;
36963;SDS011;22878;48.616;35.326;2023-02-15T19:01:44;4.90;;;1.80;;
36963;SDS011;22878;48.616;35.326;2023-02-15T19:04:12;5.70;;;2.00;;
36963;SDS011;22878;48.616;35.326;2023-02-15T19:13:21;4.40;;;1.90;;
36963;SDS011;22878;48.616;35.326;2023-02-15T19:15:46;5.80;;;1.70;;
36963;SDS011;22878;48.616;35.326;2023-02-15T19:18:12;3.50;;;1.40;;
36963;SDS011;22878;48.616;35.326;2023-02-15T19:27:25;3.30;;;1.60;;
36963;SDS011;22878;48.616;35.326;2023-02-15T19:29:53;8.40;;;1.60;;
36963;SDS011;22878;48.616;35.326;2023-02-15T19:32:19;4.00;;;1.40;;
36963;SDS011;22878;48.616;35.326;2023-02-15T19:38:06;4.90;;;1.60;;
36963;SDS011;22878;48.616;35.326;2023-02-15T19:40:40;5.50;;;1.80;;
36963;SDS011;22878;48.616;35.326;2023-02-15T19:43:09;6.30;;;1.90;;
36963;SDS011;22878;48.616;35.326;2023-02-15T19:45:41;5.40;;;2.10;;
36963;SDS011;22878;48.616;35.326;2023-02-15T19:48:08;4.30;;;1.80;;
36963;SDS011;22878;48.616;35.326;2023-02-15T19:50:36;7.20;;;2.00;;
36963;SDS011;22878;48.616;35.326;2023-02-15T19:53:01;6.20;;;1.90;;
36963;SDS011;22878;48.616;35.326;2023-02-15T19:58:49;6.30;;;2.10;;
36963;SDS011;22878;48.616;35.326;2023-02-15T20:01:21;4.30;;;1.90;;
36963;SDS011;22878;48.616;35.326;2023-02-15T20:03:48;5.10;;;2.00;;
36963;SDS011;22878;48.616;35.326;2023-02-15T20:06:16;3.70;;;1.70;;
36963;SDS011;22878;48.616;35.326;2023-02-15T20:08:42;4.80;;;2.00;;
36963;SDS011;22878;48.616;35.326;2023-02-15T20:11:12;7.40;;;2.40;;
36963;SDS011;22878;48.616;35.326;2023-02-15T20:13:38;6.20;;;2.10;;
36963;SDS011;22878;48.616;35.326;2023-02-15T20:16:04;4.80;;;2.00;;
36963;SDS011;22878;48.616;35.326;2023-02-15T20:18:32;5.60;;;2.20;;
36963;SDS011;22878;48.616;35.326;2023-02-15T20:20:58;7.30;;;2.10;;
36963;SDS011;22878;48.616;35.326;2023-02-15T20:23:30;4.00;;;1.90;;
36963;SDS011;22878;48.616;35.326;2023-02-15T20:26:00;4.80;;;1.70;;
36963;SDS011;22878;48.616;35.326;2023-02-15T20:31:52;6.20;;;1.90;;
36963;SDS011;22878;48.616;35.326;2023-02-15T20:34:18;8.40;;;1.70;;
36963;SDS011;22878;48.616;35.326;2023-02-15T20:36:44;4.50;;;1.50;;
36963;SDS011;22878;48.616;35.326;2023-02-15T20:39:14;5.70;;;1.80;;
36963;SDS011;22878;48.616;35.326;2023-02-15T20:41:43;5.70;;;1.60;;
36963;SDS011;22878;48.616;35.326;2023-02-15T20:44:24;6.50;;;1.50;;
36963;SDS011;22878;48.616;35.326;2023-02-15T20:46:53;2.50;;;1.20;;